createdAt,value
2023-04-17T00:01:17.385Z,26.50
2023-04-17T00:03:47.246Z,26.23
2023-04-17T00:06:16.396Z,26.57
2023-04-17T00:08:44.681Z,26.97
2023-04-17T00:11:14.185Z,27.50
2023-04-17T00:13:43.993Z,27.33
2023-04-17T00:16:13.770Z,27.27
2023-04-17T00:18:42.270Z,27.97
2023-04-17T00:21:10.344Z,28.00
2023-04-17T00:23:38.547Z,28.73
2023-04-17T00:26:06.806Z,27.80
2023-04-17T00:28:36.273Z,27.03
2023-04-17T00:31:04.640Z,27.23
2023-04-17T00:33:33.452Z,30.20
2023-04-17T00:36:01.765Z,27.10
2023-04-17T00:38:30.015Z,28.47
2023-04-17T00:40:58.254Z,28.23
2023-04-17T00:43:26.425Z,28.50
2023-04-17T00:45:56.189Z,26.23
2023-04-17T00:48:25.073Z,27.80
2023-04-17T00:50:55.355Z,28.50
2023-04-17T00:53:23.874Z,30.83
2023-04-17T00:55:54.163Z,27.10
2023-04-17T00:58:22.898Z,28.47
2023-04-17T01:00:51.282Z,28.27
2023-04-17T01:03:21.787Z,27.83
2023-04-17T01:05:52.775Z,26.20
2023-04-17T01:08:21.394Z,27.50
2023-04-17T01:10:49.611Z,27.37
2023-04-17T01:13:19.879Z,27.63
2023-04-17T01:15:48.026Z,26.00
2023-04-17T01:18:16.595Z,25.80
2023-04-17T01:20:46.075Z,27.13
2023-04-17T01:23:14.745Z,25.90
2023-04-17T01:25:44.371Z,27.73
2023-04-17T01:28:12.569Z,26.67
2023-04-17T01:30:40.811Z,26.73
2023-04-17T01:33:09.390Z,25.73
2023-04-17T01:35:37.564Z,26.63
2023-04-17T01:38:05.779Z,26.57
2023-04-17T01:40:33.877Z,25.50
2023-04-17T01:43:03.405Z,26.13
2023-04-17T01:45:31.620Z,26.57
2023-04-17T01:48:01.116Z,25.83
2023-04-17T01:50:29.282Z,27.60
2023-04-17T01:52:57.474Z,26.20
2023-04-17T01:55:25.611Z,26.17
2023-04-17T01:57:54.169Z,27.30
2023-04-17T02:00:24.044Z,27.07
2023-04-17T02:02:52.325Z,26.17
2023-04-17T02:05:20.983Z,28.20
2023-04-17T02:07:51.414Z,25.97
2023-04-17T02:10:19.690Z,25.87
2023-04-17T02:12:47.876Z,27.17
2023-04-17T02:15:16.077Z,27.37
2023-04-17T02:17:45.959Z,25.17
2023-04-17T02:20:14.414Z,26.53
2023-04-17T02:22:42.536Z,27.03
2023-04-17T02:25:10.810Z,25.10
2023-04-17T02:27:39.022Z,27.13
2023-04-17T02:30:08.504Z,27.37
2023-04-17T02:32:36.764Z,27.27
2023-04-17T02:35:07.410Z,27.17
2023-04-17T02:37:36.163Z,28.03
2023-04-17T02:40:06.661Z,26.67
2023-04-17T02:42:34.749Z,27.00
2023-04-17T02:45:03.192Z,27.23
2023-04-17T02:47:31.441Z,26.47
2023-04-17T02:50:00.687Z,29.17
2023-04-17T02:52:31.090Z,27.63
2023-04-17T02:54:59.478Z,29.40
2023-04-17T02:57:27.929Z,28.90
2023-04-17T02:59:56.094Z,28.87
2023-04-17T03:02:24.556Z,29.73
2023-04-17T03:04:53.492Z,28.10
2023-04-17T03:07:23.663Z,27.30
2023-04-17T03:09:54.076Z,29.93
2023-04-17T03:12:22.259Z,28.10
2023-04-17T03:14:50.672Z,28.40
2023-04-17T03:17:20.459Z,28.00
2023-04-17T03:19:48.673Z,27.77
2023-04-17T03:22:16.816Z,27.57
2023-04-17T03:24:45.017Z,28.47
2023-04-17T03:27:14.611Z,29.03
2023-04-17T03:29:42.723Z,28.33
2023-04-17T03:32:10.968Z,28.67
2023-04-17T03:34:39.169Z,27.90
2023-04-17T03:37:07.218Z,29.53
2023-04-17T03:39:35.469Z,28.80
2023-04-17T03:42:03.725Z,28.10
2023-04-17T03:44:33.332Z,29.50
2023-04-17T03:47:01.390Z,28.30
2023-04-17T03:49:29.823Z,27.53
2023-04-17T03:51:58.555Z,28.40
2023-04-17T03:54:29.314Z,30.20
2023-04-17T03:56:57.651Z,30.07
2023-04-17T03:59:25.814Z,31.60
2023-04-17T04:01:55.923Z,31.03
2023-04-17T04:04:24.280Z,30.10
2023-04-17T04:06:54.572Z,29.63
2023-04-17T04:09:22.685Z,30.03
2023-04-17T04:11:50.753Z,29.50
2023-04-17T04:14:18.945Z,30.33
2023-04-17T04:16:47.476Z,29.73
2023-04-17T04:19:17.153Z,29.33
2023-04-17T04:21:45.448Z,27.87
2023-04-17T04:24:14.498Z,27.70
2023-04-17T04:26:43.283Z,27.60
2023-04-17T04:29:13.822Z,29.33
2023-04-17T04:31:42.592Z,30.00
2023-04-17T04:34:11.130Z,27.73
2023-04-17T04:36:50.385Z,29.17
2023-04-17T04:39:20.796Z,29.03
2023-04-17T04:41:50.397Z,29.83
2023-04-17T04:44:18.765Z,29.67
2023-04-17T04:46:47.132Z,27.80
2023-04-17T04:49:15.515Z,27.17
2023-04-17T04:51:45.013Z,28.07
2023-04-17T04:54:13.437Z,27.50
2023-04-17T04:56:44.981Z,27.17
2023-04-17T04:59:13.283Z,28.47
2023-04-17T05:01:41.914Z,28.70
2023-04-17T05:04:10.185Z,29.03
2023-04-17T05:06:38.594Z,28.53
2023-04-17T05:09:08.101Z,28.67
2023-04-17T05:11:36.313Z,28.23
2023-04-17T05:14:04.414Z,29.20
2023-04-17T05:16:33.245Z,28.87
2023-04-17T05:19:01.334Z,28.23
2023-04-17T05:21:31.078Z,28.60
2023-04-17T05:23:59.515Z,28.23
2023-04-17T05:26:29.004Z,29.97
2023-04-17T05:28:57.140Z,27.53
2023-04-17T05:31:26.333Z,28.97
2023-04-17T05:33:54.615Z,28.67
2023-04-17T05:36:22.913Z,29.03
2023-04-17T05:38:51.106Z,29.20
2023-04-17T05:41:19.190Z,28.93
2023-04-17T05:43:48.660Z,29.20
2023-04-17T05:46:16.816Z,30.10
2023-04-17T05:48:44.932Z,29.23
2023-04-17T05:51:13.192Z,27.37
2023-04-17T05:53:41.305Z,29.23
2023-04-17T05:56:09.457Z,28.50
2023-04-17T05:58:37.537Z,30.83
2023-04-17T06:01:07.263Z,28.30
2023-04-17T06:03:35.558Z,29.30
2023-04-17T06:06:03.899Z,35.00
2023-04-17T06:08:32.018Z,31.00
2023-04-17T06:11:00.203Z,31.13
2023-04-17T06:13:28.288Z,28.97
2023-04-17T06:15:56.476Z,27.83
2023-04-17T06:18:26.031Z,29.87
2023-04-17T06:20:54.225Z,33.07
2023-04-17T06:23:22.645Z,32.27
2023-04-17T06:25:50.797Z,31.90
2023-04-17T06:28:18.958Z,30.77
2023-04-17T06:30:47.070Z,27.57
2023-04-17T06:33:15.233Z,29.43
2023-04-17T06:35:44.718Z,31.17
2023-04-17T06:38:12.852Z,31.40
2023-04-17T06:40:41.596Z,28.87
2023-04-17T06:43:09.714Z,28.67
2023-04-17T06:45:37.996Z,28.00
2023-04-17T06:48:06.616Z,27.53
2023-04-17T06:50:34.748Z,26.93
2023-04-17T06:53:04.292Z,25.57
2023-04-17T06:55:32.499Z,25.67
2023-04-17T06:58:00.654Z,27.07
2023-04-17T07:00:29.082Z,26.27
2023-04-17T07:02:57.351Z,25.20
2023-04-17T07:05:25.712Z,26.03
2023-04-17T07:07:53.846Z,24.27
2023-04-17T07:10:23.383Z,24.13
2023-04-17T07:12:51.730Z,24.83
2023-04-17T07:15:20.091Z,24.20
2023-04-17T07:17:48.214Z,24.60
2023-04-17T07:20:16.611Z,24.87
2023-04-17T07:22:44.801Z,24.23
2023-04-17T07:25:13.046Z,24.20
2023-04-17T07:27:42.575Z,23.60
2023-04-17T07:30:11.477Z,24.97
2023-04-17T07:32:39.694Z,25.30
2023-04-17T07:35:08.645Z,25.40
2023-04-17T07:37:37.080Z,26.90
2023-04-17T07:40:09.549Z,26.67
2023-04-17T07:42:37.906Z,27.90
2023-04-17T07:45:08.683Z,26.40
2023-04-17T07:47:36.873Z,25.93
2023-04-17T07:50:05.676Z,26.67
2023-04-17T07:52:33.752Z,25.97
2023-04-17T07:55:01.919Z,26.07
2023-04-17T07:57:30.038Z,25.77
2023-04-17T07:59:58.488Z,25.50
2023-04-17T08:02:29.495Z,23.93
2023-04-17T08:04:57.970Z,24.83
2023-04-17T08:07:27.078Z,24.40
2023-04-17T08:09:55.573Z,25.30
2023-04-17T08:12:23.788Z,24.60
2023-04-17T08:14:52.011Z,23.47
2023-04-17T08:17:23.369Z,24.03
2023-04-17T08:19:54.417Z,24.23
2023-04-17T08:22:24.220Z,23.87
2023-04-17T08:24:54.799Z,23.83
2023-04-17T08:27:23.114Z,22.30
2023-04-17T08:29:51.689Z,23.23
2023-04-17T08:32:19.837Z,22.40
2023-04-17T08:34:48.100Z,21.73
2023-04-17T08:37:17.725Z,22.03
2023-04-17T08:39:46.008Z,22.07
2023-04-17T08:42:18.474Z,21.70
2023-04-17T08:44:47.333Z,21.10
2023-04-17T08:47:15.961Z,22.90
2023-04-17T08:49:46.018Z,22.03
2023-04-17T08:52:14.545Z,22.83
2023-04-17T08:54:44.050Z,21.80
2023-04-17T08:57:12.255Z,22.43
2023-04-17T08:59:40.440Z,22.03
2023-04-17T09:02:10.343Z,21.77
2023-04-17T09:04:42.704Z,21.70
2023-04-17T09:07:12.287Z,22.60
2023-04-17T09:09:52.205Z,21.60
2023-04-17T09:12:21.513Z,21.00
2023-04-17T09:14:49.810Z,22.27
2023-04-17T09:17:20.201Z,22.13
2023-04-17T09:20:04.107Z,20.83
2023-04-17T09:22:32.291Z,21.83
2023-04-17T09:25:02.012Z,20.70
2023-04-17T09:27:30.783Z,21.50
2023-04-17T09:30:01.344Z,22.23
2023-04-17T09:32:30.744Z,22.20
2023-04-17T09:35:00.079Z,21.20
2023-04-17T09:37:47.228Z,22.27
2023-04-17T09:40:17.630Z,21.63
2023-04-17T09:42:56.949Z,22.60
2023-04-17T09:45:26.104Z,21.87
2023-04-17T09:47:56.747Z,22.03
2023-04-17T09:50:25.880Z,20.90
2023-04-17T09:52:55.952Z,21.50
2023-04-17T09:55:26.805Z,20.93
2023-04-17T09:57:56.529Z,21.23
2023-04-17T10:00:27.146Z,19.93
2023-04-17T10:02:57.441Z,21.23
2023-04-17T10:05:27.150Z,21.47
2023-04-17T10:07:55.743Z,21.67
2023-04-17T10:10:27.161Z,21.53
2023-04-17T10:12:58.269Z,20.83
2023-04-17T10:15:27.433Z,21.00
2023-04-17T10:17:57.722Z,20.77
2023-04-17T10:20:39.390Z,20.37
2023-04-17T10:23:31.379Z,20.40
2023-04-17T10:26:42.088Z,20.43
2023-04-17T10:29:12.810Z,21.40
2023-04-17T10:32:28.650Z,20.97
2023-04-17T10:34:58.348Z,21.53
2023-04-17T10:37:59.835Z,20.83
2023-04-17T10:40:31.611Z,20.83
2023-04-17T10:43:12.198Z,21.10
2023-04-17T10:46:09.770Z,20.00
2023-04-17T10:48:41.705Z,20.60
2023-04-17T10:51:43.799Z,20.20
2023-04-17T10:54:15.330Z,21.23
2023-04-17T10:56:46.182Z,20.40
2023-04-17T10:59:15.900Z,20.80
2023-04-17T11:02:01.484Z,21.30
2023-04-17T11:04:31.813Z,20.93
2023-04-17T11:07:00.137Z,20.63
2023-04-17T11:09:30.319Z,21.10
2023-04-17T11:12:01.895Z,21.97
2023-04-17T11:14:30.861Z,21.77
2023-04-17T11:17:00.590Z,22.60
2023-04-17T11:19:28.785Z,21.93
2023-04-17T11:21:58.832Z,21.70
2023-04-17T11:24:29.673Z,22.20
2023-04-17T11:27:00.213Z,22.50
2023-04-17T11:29:28.941Z,21.57
2023-04-17T11:31:58.796Z,21.50
2023-04-17T11:34:28.537Z,21.77
2023-04-17T11:36:58.255Z,23.27
2023-04-17T11:39:29.021Z,23.10
2023-04-17T11:41:58.003Z,25.07
2023-04-17T11:44:26.943Z,21.30
2023-04-17T11:46:56.351Z,20.37
2023-04-17T11:49:29.547Z,21.10
2023-04-17T11:52:00.482Z,21.63
2023-04-17T11:54:29.263Z,21.00
2023-04-17T11:57:05.091Z,20.57
2023-04-17T11:59:34.126Z,19.97
2023-04-17T12:02:03.529Z,19.47
2023-04-17T12:04:35.011Z,26.40
2023-04-17T12:07:04.101Z,21.53
2023-04-17T12:09:32.680Z,19.60
2023-04-17T12:12:02.756Z,20.60
2023-04-17T12:14:31.384Z,20.57
2023-04-17T12:16:59.705Z,20.70
2023-04-17T12:19:29.448Z,20.73
2023-04-17T12:21:59.842Z,21.27
2023-04-17T12:24:27.996Z,21.90
2023-04-17T12:26:56.422Z,22.00
2023-04-17T12:29:40.563Z,21.00
2023-04-17T12:32:11.819Z,20.43
2023-04-17T12:34:40.532Z,21.50
2023-04-17T12:37:10.423Z,21.77
2023-04-17T12:39:38.721Z,21.07
2023-04-17T12:42:06.892Z,21.63
2023-04-17T12:44:35.016Z,20.83
2023-04-17T12:47:03.387Z,20.77
2023-04-17T12:49:31.580Z,21.87
2023-04-17T12:52:02.388Z,21.67
2023-04-17T12:54:33.150Z,21.30
2023-04-17T12:57:01.554Z,21.70
2023-04-17T12:59:29.640Z,22.03
2023-04-17T13:01:58.001Z,20.87
2023-04-17T13:04:26.306Z,21.27
2023-04-17T13:06:54.838Z,21.57
2023-04-17T13:09:23.297Z,21.43
2023-04-17T13:11:52.896Z,22.20
2023-04-17T13:14:21.588Z,22.33
2023-04-17T13:16:50.824Z,22.50
2023-04-17T13:19:19.897Z,21.40
2023-04-17T13:21:48.007Z,22.00
2023-04-17T13:24:16.290Z,23.03
2023-04-17T13:26:44.812Z,21.60
2023-04-17T13:29:17.058Z,22.00
2023-04-17T13:31:46.777Z,21.60
2023-04-17T13:34:15.242Z,22.13
2023-04-17T13:36:44.976Z,22.40
2023-04-17T13:39:13.802Z,21.30
2023-04-17T13:41:42.541Z,21.43
2023-04-17T13:44:11.514Z,22.03
2023-04-17T13:46:41.902Z,21.87
2023-04-17T13:49:34.768Z,21.33
2023-04-17T13:52:08.476Z,23.00
2023-04-17T13:54:36.693Z,21.30
2023-04-17T13:57:11.458Z,21.43
2023-04-17T13:59:39.902Z,20.87
2023-04-17T14:02:10.280Z,21.60
2023-04-17T14:04:42.657Z,21.40
2023-04-17T14:07:19.108Z,22.20
2023-04-17T14:09:54.666Z,20.97
2023-04-17T14:12:49.849Z,21.47
2023-04-17T14:15:19.729Z,21.20
2023-04-17T14:17:49.479Z,22.23
2023-04-17T14:20:19.896Z,21.70
2023-04-17T14:22:48.285Z,22.50
2023-04-17T14:25:16.656Z,21.60
2023-04-17T14:27:44.889Z,21.77
2023-04-17T14:30:13.351Z,21.90
2023-04-17T14:32:41.589Z,22.03
2023-04-17T14:35:12.076Z,20.90
2023-04-17T14:37:40.303Z,21.83
2023-04-17T14:40:09.596Z,20.13
2023-04-17T14:42:47.380Z,22.00
2023-04-17T14:45:22.001Z,23.47
2023-04-17T14:47:50.300Z,21.57
2023-04-17T14:50:20.103Z,21.60
2023-04-17T14:52:48.311Z,21.33
2023-04-17T14:55:16.716Z,21.43
2023-04-17T14:57:44.993Z,22.00
2023-04-17T15:00:14.468Z,21.13
2023-04-17T15:02:43.040Z,20.50
2023-04-17T15:05:11.791Z,20.27
2023-04-17T15:07:41.563Z,21.33
2023-04-17T15:10:10.977Z,20.50
2023-04-17T15:12:39.499Z,20.43
2023-04-17T15:15:09.553Z,22.77
2023-04-17T15:17:38.508Z,21.93
2023-04-17T15:20:07.995Z,21.73
2023-04-17T15:22:36.506Z,21.17
2023-04-17T15:25:07.281Z,21.97
2023-04-17T15:27:35.753Z,21.43
2023-04-17T15:30:06.736Z,22.10
2023-04-17T15:32:35.135Z,20.43
2023-04-17T15:35:03.712Z,21.50
2023-04-17T15:37:32.353Z,20.43
2023-04-17T15:40:00.826Z,20.50
2023-04-17T15:42:30.617Z,21.40
2023-04-17T15:44:59.103Z,21.47
2023-04-17T15:47:27.588Z,20.70
2023-04-17T15:49:56.004Z,21.07
2023-04-17T15:52:24.348Z,20.50
2023-04-17T15:54:52.519Z,20.40
2023-04-17T15:57:20.643Z,21.50
2023-04-17T15:59:50.269Z,20.80
2023-04-17T16:02:18.580Z,21.73
2023-04-17T16:04:46.966Z,20.60
2023-04-17T16:07:16.555Z,21.07
2023-04-17T16:09:46.663Z,20.33
2023-04-17T16:12:14.935Z,20.83
2023-04-17T16:14:43.196Z,20.67
2023-04-17T16:17:12.597Z,20.33
2023-04-17T16:19:40.690Z,21.17
2023-04-17T16:22:08.835Z,20.60
2023-04-17T16:24:36.967Z,20.40
2023-04-17T16:27:05.223Z,21.40
2023-04-17T16:29:33.363Z,20.23
2023-04-17T16:32:01.518Z,20.97
2023-04-17T16:34:30.994Z,21.03
2023-04-17T16:36:59.156Z,20.40
2023-04-17T16:39:27.501Z,20.77
2023-04-17T16:41:56.295Z,20.87
2023-04-17T16:44:25.943Z,20.80
2023-04-17T16:47:10.085Z,20.63
2023-04-17T16:49:42.743Z,20.23
2023-04-17T16:52:11.278Z,20.87
2023-04-17T16:54:39.494Z,20.57
2023-04-17T16:57:07.723Z,20.33
2023-04-17T16:59:35.986Z,20.60
2023-04-17T17:02:05.397Z,19.70
2023-04-17T17:04:33.606Z,19.57
2023-04-17T17:07:03.132Z,20.60
2023-04-17T17:09:31.280Z,19.20
2023-04-17T17:11:59.436Z,19.67
2023-04-17T17:14:27.626Z,19.77
2023-04-17T17:16:55.835Z,18.80
2023-04-17T17:19:24.091Z,20.90
2023-04-17T17:21:52.429Z,18.80
2023-04-17T17:24:22.044Z,18.67
2023-04-17T17:26:50.636Z,20.90
2023-04-17T17:29:19.147Z,19.37
2023-04-17T17:31:47.474Z,20.33
2023-04-17T17:34:26.536Z,20.07
2023-04-17T17:36:55.601Z,19.70
2023-04-17T17:39:25.254Z,19.40
2023-04-17T17:41:55.834Z,18.90
2023-04-17T17:44:24.222Z,19.43
2023-04-17T17:46:52.763Z,18.90
2023-04-17T17:49:20.814Z,19.60
2023-04-17T17:51:48.919Z,19.47
2023-04-17T17:54:17.244Z,19.50
2023-04-17T17:56:47.070Z,19.10
2023-04-17T17:59:15.431Z,18.30
2023-04-17T18:01:44.030Z,20.17
2023-04-17T18:04:12.525Z,18.70
2023-04-17T18:06:41.042Z,18.13
2023-04-17T18:09:09.206Z,18.30
2023-04-17T18:11:38.376Z,18.33
2023-04-17T18:14:07.982Z,18.97
2023-04-17T18:16:37.243Z,18.70
2023-04-17T18:19:05.378Z,17.67
2023-04-17T18:21:33.846Z,18.07
2023-04-17T18:24:02.750Z,17.70
2023-04-17T18:26:30.884Z,17.70
2023-04-17T18:28:59.005Z,17.70
2023-04-17T18:31:28.553Z,18.00
2023-04-17T18:33:57.018Z,17.77
2023-04-17T18:36:26.161Z,16.90
2023-04-17T18:38:54.297Z,17.43
2023-04-17T18:41:23.039Z,18.80
2023-04-17T18:43:51.221Z,18.37
2023-04-17T18:46:19.535Z,17.70
2023-04-17T18:48:49.145Z,18.40
2023-04-17T18:51:17.591Z,17.67
2023-04-17T18:53:45.802Z,17.60
2023-04-17T18:56:15.115Z,17.30
2023-04-17T18:58:43.660Z,16.50
2023-04-17T19:01:11.942Z,16.70
2023-04-17T19:03:40.474Z,17.13
2023-04-17T19:06:10.032Z,16.57
2023-04-17T19:08:39.527Z,16.10
2023-04-17T19:11:08.003Z,16.73
2023-04-17T19:13:36.149Z,17.30
2023-04-17T19:16:04.334Z,16.77
2023-04-17T19:18:32.551Z,16.63
2023-04-17T19:21:02.084Z,17.43
2023-04-17T19:23:31.625Z,17.67
2023-04-17T19:25:59.810Z,16.67
2023-04-17T19:28:28.490Z,16.73
2023-04-17T19:30:57.946Z,16.90
2023-04-17T19:33:26.140Z,17.20
2023-04-17T19:35:54.240Z,17.30
2023-04-17T19:38:22.476Z,16.40
2023-04-17T19:41:14.584Z,16.97
2023-04-17T19:43:42.958Z,16.93
2023-04-17T19:46:11.273Z,16.50
2023-04-17T19:48:39.503Z,16.33
2023-04-17T19:51:08.051Z,17.00
2023-04-17T19:53:37.311Z,16.23
2023-04-17T19:56:08.564Z,16.70
2023-04-17T19:58:37.384Z,15.93
2023-04-17T20:01:05.984Z,16.10
2023-04-17T20:03:35.694Z,15.87
2023-04-17T20:06:04.415Z,16.80
2023-04-17T20:08:32.669Z,16.70
2023-04-17T20:11:00.851Z,16.60
2023-04-17T20:13:30.431Z,16.77
2023-04-17T20:15:58.662Z,16.63
2023-04-17T20:18:27.260Z,17.17
2023-04-17T20:20:55.530Z,16.20
2023-04-17T20:23:23.784Z,16.90
2023-04-17T20:25:51.901Z,17.30
2023-04-17T20:28:20.184Z,17.50
2023-04-17T20:30:50.689Z,18.00
2023-04-17T20:33:18.981Z,17.53
2023-04-17T20:35:47.632Z,17.33
2023-04-17T20:38:15.760Z,17.50
2023-04-17T20:40:44.069Z,17.50
2023-04-17T20:43:13.171Z,17.57
2023-04-17T20:45:41.485Z,17.87
2023-04-17T20:48:11.068Z,17.97
2023-04-17T20:50:39.206Z,18.40
2023-04-17T20:53:07.364Z,19.30
2023-04-17T20:55:37.113Z,18.20
2023-04-17T20:58:05.363Z,18.47
2023-04-17T21:00:34.724Z,18.30
2023-04-17T21:03:03.064Z,19.93
2023-04-17T21:05:32.911Z,19.57
2023-04-17T21:08:00.932Z,18.43
2023-04-17T21:10:29.162Z,18.23
2023-04-17T21:12:57.369Z,18.63
2023-04-17T21:15:25.681Z,18.40
2023-04-17T21:17:53.801Z,18.97
2023-04-17T21:20:22.007Z,18.97
2023-04-17T21:22:51.595Z,19.13
2023-04-17T21:25:19.811Z,19.63
2023-04-17T21:27:47.893Z,20.10
2023-04-17T21:30:16.281Z,20.70
2023-04-17T21:32:44.491Z,20.97
2023-04-17T21:35:12.770Z,19.80
2023-04-17T21:37:40.923Z,20.80
2023-04-17T21:40:11.786Z,20.83
2023-04-17T21:42:39.865Z,19.30
2023-04-17T21:45:09.118Z,20.93
2023-04-17T21:47:37.293Z,21.67
2023-04-17T21:50:05.976Z,21.00
2023-04-17T21:52:34.127Z,20.97
2023-04-17T21:55:05.615Z,20.40
2023-04-17T21:57:35.235Z,21.30
2023-04-17T22:00:04.469Z,20.77
2023-04-17T22:02:32.683Z,20.80
2023-04-17T22:05:00.859Z,19.70
2023-04-17T22:07:29.011Z,22.13
2023-04-17T22:09:59.050Z,20.80
2023-04-17T22:12:27.088Z,21.30
2023-04-17T22:14:56.556Z,20.53
2023-04-17T22:17:24.675Z,21.40
2023-04-17T22:19:52.821Z,21.50
2023-04-17T22:22:20.833Z,21.63
2023-04-17T22:24:49.019Z,21.97
2023-04-17T22:27:17.096Z,22.50
2023-04-17T22:29:45.218Z,21.20
2023-04-17T22:32:14.691Z,22.33
2023-04-17T22:34:42.726Z,22.40
2023-04-17T22:37:11.107Z,21.57
2023-04-17T22:39:39.240Z,22.60
2023-04-17T22:42:07.519Z,22.40
2023-04-17T22:44:35.644Z,22.57
2023-04-17T22:47:03.714Z,23.47
2023-04-17T22:49:38.129Z,23.53
2023-04-17T22:52:06.734Z,24.37
2023-04-17T22:54:34.912Z,25.77
2023-04-17T22:57:03.343Z,25.20
2023-04-17T22:59:31.604Z,23.70
2023-04-17T23:01:59.946Z,23.40
2023-04-17T23:04:28.154Z,23.67
2023-04-17T23:06:58.144Z,23.00
2023-04-17T23:09:27.511Z,23.33
2023-04-17T23:11:56.079Z,23.93
2023-04-17T23:14:24.293Z,24.03
2023-04-17T23:16:52.909Z,24.50
2023-04-17T23:19:22.499Z,24.37
2023-04-17T23:21:50.753Z,24.73
2023-04-17T23:24:20.250Z,24.37
2023-04-17T23:26:48.842Z,24.07
2023-04-17T23:29:16.964Z,24.33
2023-04-17T23:31:45.604Z,25.73
2023-04-17T23:34:14.021Z,24.30
2023-04-17T23:36:42.314Z,23.67
2023-04-17T23:39:10.587Z,24.43
2023-04-17T23:41:42.264Z,24.47
2023-04-17T23:44:10.748Z,25.17
2023-04-17T23:46:38.963Z,25.63
2023-04-17T23:49:07.088Z,24.10
2023-04-17T23:51:35.152Z,25.53
2023-04-17T23:54:03.243Z,25.67
2023-04-17T23:56:31.356Z,25.03
2023-04-17T23:59:00.845Z,25.17
